Aérodrome :
LOGIN :

S'inscrire | Disclaimer

   EN    FR    IT 

 










Légende :    VFR   VFR Marginal   IFR   IFR Intensif   IFR Très Intensif
Visi : 
Plafond : 
>= 8 km
>= 3000ft
5 à 8 km
1000 à 3000 ft
1500m à 5 km
500 à 1000 ft
800 à 1500m
200 à 500 ft
< 800m
< 200 ft
Symboles :   Orages  Brouillard  Fortes neiges  Fortes précipitations  Vent > 20 kt
SIGMETs :   Divers  Orages  Givrage  Turbulence  Onde Orograph.  Cendres Volcan.






- Altitude de l'aérodrome : 1674 ft
- Code IATA : BRN


LSZB - Bern Belp

DERNIER METAR :
  • 131250Z 13007KT 080V180 CAVOK 26/18 Q1017 NOSIG

METARs EXPIRÉS :
  • 131220Z 09007KT CAVOK 24/19 Q1017 NOSIG
  • 131150Z 10006KT 060V150 9999 SCT140 21/17 Q1018 NOSIG
  • 131120Z 15007KT 9999 FEW065 SCT090 BKN100 //////TCU 18/17 Q1018 NOSIG
  • 131050Z 11007KT 080V150 9999 -RA FEW075 SCT085 BKN095 SCT///CB 18/16 Q1018 NOSIG
  • 131020Z AUTO 14008KT 080V170 9999 -RA VCTS SCT075 BKN085 SCT///CB 20/15 Q1018

TAF TAF LSZB
Valide du 13 à 12h jusqu'au 13 à 21h UTC


131125Z 1312/1321 11007KT 9999 FEW070 SCT080 BKN090
PROB30
TEMPO 1312/1316 25010KT TSRA SCT060CB
PROB40
TEMPO 1316/1320 26015G30KT 4500 TSRA SCT050CB
ATIS : +41 22 417 40 76



MET'MAP, la Météo Aéronautique d'un coup d'oeil ! - Copyright ORBIFLY Décembre 2007 - Disclaimer

ORBIFLY MET'MAP TEAM :

Programmation & Développement : Alexandra Zaïnal
Sur une idée originale de : Baudouin d'Aumeries
Assistance à la programmation : Marc-Olivier Méhu
Soutien technique & logistique : Manuel Goepfert

Contact : metmap@orbifly.com




SOURCES & CREDITS :

   NOAA